createdAt,value
2023-02-04T00:01:46.826Z,32.15
2023-02-04T00:04:13.951Z,22.73
2023-02-04T00:06:40.665Z,27.33
2023-02-04T00:09:07.164Z,18.58
2023-02-04T00:11:33.697Z,20.67
2023-02-04T00:14:00.327Z,27.45
2023-02-04T00:16:26.880Z,33.58
2023-02-04T00:18:53.445Z,23.92
2023-02-04T00:21:20.029Z,22.90
2023-02-04T00:23:46.491Z,21.90
2023-02-04T00:26:13.088Z,31.42
2023-02-04T00:28:40.628Z,23.33
2023-02-04T00:31:07.236Z,28.17
2023-02-04T00:33:33.734Z,32.75
2023-02-04T00:36:00.292Z,29.85
2023-02-04T00:38:26.814Z,32.85
2023-02-04T00:40:53.880Z,36.63
2023-02-04T00:43:20.342Z,34.60
2023-02-04T00:45:46.960Z,32.25
2023-02-04T00:48:13.480Z,27.25
2023-02-04T00:50:40.065Z,28.13
2023-02-04T00:53:07.346Z,31.30
2023-02-04T00:55:33.913Z,34.30
2023-02-04T00:58:00.497Z,32.37
2023-02-04T01:00:27.053Z,26.77
2023-02-04T01:02:54.203Z,34.67
2023-02-04T01:05:20.778Z,33.72
2023-02-04T01:07:47.262Z,33.55
2023-02-04T01:10:15.417Z,24.48
2023-02-04T01:12:42.067Z,29.08
2023-02-04T01:15:09.277Z,27.90
2023-02-04T01:17:35.805Z,26.27
2023-02-04T01:20:02.286Z,24.92
2023-02-04T01:22:28.816Z,29.67
2023-02-04T01:24:55.468Z,24.90
2023-02-04T01:27:21.946Z,28.07
2023-02-04T01:29:48.459Z,22.00
2023-02-04T01:32:15.032Z,27.87
2023-02-04T01:34:41.559Z,24.73
2023-02-04T01:37:08.063Z,28.37
2023-02-04T01:39:34.668Z,24.63
2023-02-04T01:42:01.329Z,22.90
2023-02-04T01:44:29.234Z,24.27
2023-02-04T01:46:56.157Z,23.30
2023-02-04T01:49:23.398Z,22.97
2023-02-04T01:51:50.154Z,28.33
2023-02-04T01:54:17.979Z,28.43
2023-02-04T01:56:47.266Z,28.07
2023-02-04T01:59:16.362Z,23.13
2023-02-04T02:01:46.079Z,25.13
2023-02-04T02:04:34.142Z,25.30
2023-02-04T02:07:03.918Z,29.80
2023-02-04T02:09:33.345Z,29.70
2023-02-04T02:12:02.967Z,21.23
2023-02-04T02:14:29.616Z,20.53
2023-02-04T02:16:56.220Z,28.03
2023-02-04T02:19:32.366Z,24.30
2023-02-04T02:22:31.007Z,26.20
2023-02-04T02:24:57.744Z,25.87
2023-02-04T02:27:24.730Z,21.93
2023-02-04T02:29:51.636Z,20.67
2023-02-04T02:32:18.471Z,23.17
2023-02-04T02:34:46.825Z,29.37
2023-02-04T02:37:14.046Z,23.73
2023-02-04T02:39:44.538Z,22.97
2023-02-04T02:42:16.263Z,18.37
2023-02-04T02:44:44.866Z,26.00
2023-02-04T02:47:15.363Z,18.83
2023-02-04T02:49:42.869Z,21.07
2023-02-04T02:52:13.377Z,24.13
2023-02-04T02:54:40.779Z,18.47
2023-02-04T02:57:16.388Z,20.23
2023-02-04T02:59:42.982Z,19.70
2023-02-04T03:02:13.865Z,24.33
2023-02-04T03:04:44.049Z,21.53
2023-02-04T03:07:11.948Z,20.83
2023-02-04T03:09:38.602Z,18.43
2023-02-04T03:12:06.302Z,20.73
2023-02-04T03:14:33.624Z,17.70
2023-02-04T03:17:01.421Z,18.80
2023-02-04T03:19:28.463Z,17.17
2023-02-04T03:21:56.596Z,22.57
2023-02-04T03:24:24.022Z,23.27
2023-02-04T03:26:50.709Z,20.67
2023-02-04T03:29:17.405Z,18.57
2023-02-04T03:31:44.008Z,23.13
2023-02-04T03:34:10.654Z,23.50
2023-02-04T03:36:37.738Z,18.70
2023-02-04T03:39:04.627Z,16.90
2023-02-04T03:41:31.203Z,17.87
2023-02-04T03:43:57.703Z,26.83
2023-02-04T03:46:25.888Z,17.63
2023-02-04T03:48:52.478Z,20.37
2023-02-04T03:51:18.971Z,21.00
2023-02-04T03:53:45.441Z,18.03
2023-02-04T03:56:11.970Z,16.27
2023-02-04T03:58:38.597Z,22.83
2023-02-04T04:01:05.233Z,20.27
2023-02-04T04:03:31.754Z,21.30
2023-02-04T04:05:58.308Z,20.57
2023-02-04T04:08:25.645Z,14.70
2023-02-04T04:10:52.150Z,14.27
2023-02-04T04:13:18.646Z,25.67
2023-02-04T04:15:45.253Z,19.87
2023-02-04T04:18:11.776Z,18.53
2023-02-04T04:20:38.349Z,17.07
2023-02-04T04:23:05.144Z,18.30
2023-02-04T04:25:31.704Z,19.67
2023-02-04T04:27:58.263Z,18.93
2023-02-04T04:30:24.905Z,19.13
2023-02-04T04:32:51.480Z,22.10
2023-02-04T04:35:18.054Z,20.13
2023-02-04T04:37:44.543Z,21.23
2023-02-04T04:40:12.520Z,19.17
2023-02-04T04:42:39.067Z,16.93
2023-02-04T04:45:08.908Z,12.93
2023-02-04T04:47:35.839Z,19.67
2023-02-04T04:50:02.487Z,15.77
2023-02-04T04:52:29.037Z,18.10
2023-02-04T04:54:55.597Z,17.60
2023-02-04T04:57:22.267Z,15.97
2023-02-04T04:59:48.804Z,20.20
2023-02-04T05:02:15.294Z,16.90
2023-02-04T05:04:41.854Z,18.73
2023-02-04T05:07:08.557Z,16.60
2023-02-04T05:09:35.017Z,15.37
2023-02-04T05:12:01.545Z,16.67
2023-02-04T05:14:28.223Z,19.20
2023-02-04T05:16:54.680Z,20.90
2023-02-04T05:19:21.187Z,22.57
2023-02-04T05:21:47.701Z,23.80
2023-02-04T05:24:14.319Z,25.33
2023-02-04T05:26:40.811Z,18.33
2023-02-04T05:29:07.976Z,16.73
2023-02-04T05:31:35.431Z,21.43
2023-02-04T05:34:02.005Z,18.50
2023-02-04T05:36:28.665Z,27.03
2023-02-04T05:38:55.103Z,20.13
2023-02-04T05:41:21.657Z,16.10
2023-02-04T05:43:48.169Z,15.07
2023-02-04T05:46:14.668Z,15.67
2023-02-04T05:48:41.227Z,22.73
2023-02-04T05:51:07.770Z,17.60
2023-02-04T05:53:34.325Z,15.43
2023-02-04T05:56:00.902Z,22.23
2023-02-04T05:58:33.304Z,22.27
2023-02-04T06:01:01.593Z,19.83
2023-02-04T06:03:29.618Z,19.90
2023-02-04T06:05:57.037Z,24.20
2023-02-04T06:08:23.738Z,23.53
2023-02-04T06:10:50.346Z,18.77
2023-02-04T06:13:17.080Z,21.83
2023-02-04T06:15:43.560Z,22.03
2023-02-04T06:18:10.638Z,26.47
2023-02-04T06:20:37.426Z,22.53
2023-02-04T06:23:03.921Z,14.93
2023-02-04T06:25:30.487Z,23.53
2023-02-04T06:27:57.063Z,19.73
2023-02-04T06:30:23.561Z,22.67
2023-02-04T06:32:50.080Z,18.50
2023-02-04T06:35:16.741Z,21.80
2023-02-04T06:37:44.522Z,21.93
2023-02-04T06:40:12.207Z,30.60
2023-02-04T06:42:38.796Z,29.13
2023-02-04T06:45:05.896Z,19.03
2023-02-04T06:47:32.468Z,21.97
2023-02-04T06:49:58.921Z,26.30
2023-02-04T06:52:25.482Z,25.50
2023-02-04T06:54:51.994Z,31.77
2023-02-04T06:57:18.521Z,20.63
2023-02-04T06:59:47.042Z,21.50
2023-02-04T07:02:14.227Z,17.50
2023-02-04T07:04:43.767Z,22.07
2023-02-04T07:07:11.652Z,29.17
2023-02-04T07:09:40.608Z,20.77
2023-02-04T07:12:07.688Z,19.63
2023-02-04T07:14:34.434Z,20.13
2023-02-04T07:17:01.150Z,22.20
2023-02-04T07:19:27.692Z,20.33
2023-02-04T07:21:56.842Z,22.67
2023-02-04T07:24:24.090Z,24.70
2023-02-04T07:26:51.134Z,17.63
2023-02-04T07:29:25.070Z,23.37
2023-02-04T07:31:52.922Z,17.20
2023-02-04T07:34:20.236Z,24.60
2023-02-04T07:36:47.013Z,23.27
2023-02-04T07:39:13.606Z,25.30
2023-02-04T07:41:41.045Z,18.77
2023-02-04T07:44:07.769Z,19.20
2023-02-04T07:46:34.323Z,19.50
2023-02-04T07:49:01.234Z,21.63
2023-02-04T07:51:28.083Z,21.67
2023-02-04T07:53:55.693Z,20.97
2023-02-04T07:56:22.161Z,19.70
2023-02-04T07:58:48.692Z,19.77
2023-02-04T08:01:15.690Z,17.83
2023-02-04T08:03:42.760Z,21.47
2023-02-04T08:06:09.698Z,26.70
2023-02-04T08:08:36.201Z,15.93
2023-02-04T08:11:02.848Z,21.50
2023-02-04T08:13:29.398Z,21.33
2023-02-04T08:15:55.996Z,20.53
2023-02-04T08:18:25.051Z,22.93
2023-02-04T08:20:51.837Z,18.23
2023-02-04T08:23:18.396Z,17.93
2023-02-04T08:25:45.603Z,18.87
2023-02-04T08:28:12.320Z,22.70
2023-02-04T08:30:38.943Z,19.70
2023-02-04T08:33:05.540Z,22.27
2023-02-04T08:35:32.016Z,24.23
2023-02-04T08:37:58.495Z,20.13
2023-02-04T08:40:24.994Z,22.00
2023-02-04T08:42:51.591Z,18.80
2023-02-04T08:45:18.719Z,20.97
2023-02-04T08:47:45.385Z,30.00
2023-02-04T08:50:12.273Z,26.40
2023-02-04T08:52:38.853Z,19.10
2023-02-04T08:55:05.897Z,24.03
2023-02-04T08:57:34.008Z,21.53
2023-02-04T09:00:01.016Z,28.03
2023-02-04T09:02:27.566Z,24.33
2023-02-04T09:04:54.137Z,21.53
2023-02-04T09:07:21.712Z,22.43
2023-02-04T09:09:48.841Z,22.73
2023-02-04T09:12:15.312Z,17.37
2023-02-04T09:14:41.804Z,20.57
2023-02-04T09:17:08.375Z,19.43
2023-02-04T09:19:34.938Z,16.73
2023-02-04T09:22:01.495Z,20.43
2023-02-04T09:24:28.164Z,21.10
2023-02-04T09:26:54.702Z,20.53
2023-02-04T09:29:21.178Z,18.87
2023-02-04T09:31:48.050Z,21.87
2023-02-04T09:34:14.657Z,24.23
2023-02-04T09:36:41.240Z,16.40
2023-02-04T09:39:10.107Z,20.07
2023-02-04T09:41:40.061Z,21.70
2023-02-04T09:44:15.169Z,19.50
2023-02-04T09:46:47.866Z,17.83
2023-02-04T09:49:14.471Z,19.92
2023-02-04T09:51:43.959Z,16.33
2023-02-04T09:54:15.732Z,22.27
2023-02-04T09:56:42.407Z,21.63
2023-02-04T09:59:23.599Z,18.85
2023-02-04T10:02:00.596Z,22.83
2023-02-04T10:04:27.681Z,19.08
2023-02-04T10:06:58.644Z,17.10
2023-02-04T10:09:25.271Z,15.85
2023-02-04T10:11:52.547Z,19.27
2023-02-04T10:14:22.721Z,18.67
2023-02-04T10:16:59.492Z,18.25
2023-02-04T10:19:28.138Z,22.67
2023-02-04T10:21:54.911Z,15.65
2023-02-04T10:24:30.517Z,22.50
2023-02-04T10:27:08.869Z,18.02
2023-02-04T10:29:35.587Z,14.20
2023-02-04T10:32:02.217Z,15.57
2023-02-04T10:34:39.877Z,11.52
2023-02-04T10:37:20.192Z,17.33
2023-02-04T10:39:46.976Z,16.35
2023-02-04T10:42:24.922Z,19.33
2023-02-04T10:44:51.871Z,17.15
2023-02-04T10:47:20.272Z,21.15
2023-02-04T10:49:54.562Z,15.63
2023-02-04T10:52:24.752Z,16.23
2023-02-04T10:54:51.352Z,15.27
2023-02-04T10:57:26.195Z,15.40
2023-02-04T11:00:01.473Z,11.93
2023-02-04T11:02:46.148Z,18.15
2023-02-04T11:05:15.806Z,17.13
2023-02-04T11:07:43.117Z,16.73
2023-02-04T11:10:15.890Z,15.63
2023-02-04T11:13:06.537Z,16.23
2023-02-04T11:16:15.455Z,11.38
2023-02-04T11:18:49.841Z,15.18
2023-02-04T11:21:34.798Z,9.18
2023-02-04T11:24:16.306Z,9.88
2023-02-04T11:26:44.913Z,12.60
2023-02-04T11:29:41.119Z,9.63
2023-02-04T11:32:28.047Z,12.38
2023-02-04T11:34:57.238Z,15.45
2023-02-04T11:37:45.138Z,11.32
2023-02-04T11:40:32.620Z,14.30
2023-02-04T11:43:09.605Z,11.27
2023-02-04T11:45:37.715Z,9.52
2023-02-04T11:48:19.068Z,9.65
2023-02-04T11:50:57.261Z,11.43
2023-02-04T11:53:34.376Z,7.85
2023-02-04T11:56:00.985Z,12.27
2023-02-04T11:58:30.863Z,13.48
2023-02-04T12:00:58.483Z,8.15
2023-02-04T12:03:35.927Z,12.65
2023-02-04T12:06:03.601Z,10.65
2023-02-04T12:08:33.410Z,14.43
2023-02-04T12:11:27.464Z,9.73
2023-02-04T12:13:56.703Z,10.10
2023-02-04T12:16:24.184Z,12.35
2023-02-04T12:18:51.369Z,9.43
2023-02-04T12:21:19.345Z,9.70
2023-02-04T12:23:45.898Z,15.35
2023-02-04T12:26:13.059Z,8.20
2023-02-04T12:28:39.611Z,9.25
2023-02-04T12:31:06.240Z,11.57
2023-02-04T12:33:32.778Z,10.05
2023-02-04T12:35:59.795Z,16.55
2023-02-04T12:38:28.169Z,7.00
2023-02-04T12:40:55.052Z,6.18
2023-02-04T12:43:21.684Z,10.85
2023-02-04T12:45:49.857Z,8.80
2023-02-04T12:48:16.689Z,15.10
2023-02-04T12:50:43.195Z,8.30
2023-02-04T12:53:09.834Z,13.85
2023-02-04T12:55:36.740Z,10.10
2023-02-04T12:58:03.656Z,9.02
2023-02-04T13:00:30.898Z,9.45
2023-02-04T13:02:59.211Z,11.68
2023-02-04T13:05:26.743Z,7.10
2023-02-04T13:07:53.398Z,6.20
2023-02-04T13:10:21.886Z,8.10
2023-02-04T13:12:48.630Z,7.63
2023-02-04T13:15:15.183Z,11.57
2023-02-04T13:17:41.860Z,13.07
2023-02-04T13:20:09.192Z,10.23
2023-02-04T13:22:35.772Z,5.40
2023-02-04T13:25:04.190Z,10.27
2023-02-04T13:27:32.374Z,6.90
2023-02-04T13:29:59.069Z,6.15
2023-02-04T13:32:25.871Z,9.68
2023-02-04T13:34:52.380Z,9.40
2023-02-04T13:37:19.003Z,4.22
2023-02-04T13:39:45.522Z,6.40
2023-02-04T13:42:11.996Z,5.57
2023-02-04T13:44:38.649Z,9.93
2023-02-04T13:47:05.247Z,11.90
2023-02-04T13:49:31.767Z,6.20
2023-02-04T13:51:58.569Z,7.13
2023-02-04T13:54:25.628Z,2.90
2023-02-04T13:56:52.168Z,5.43
2023-02-04T13:59:20.901Z,4.28
2023-02-04T14:01:47.571Z,4.20
2023-02-04T14:04:14.312Z,6.53
2023-02-04T14:06:43.696Z,8.77
2023-02-04T14:09:12.329Z,3.95
2023-02-04T14:11:39.246Z,4.35
2023-02-04T14:14:06.406Z,4.20
2023-02-04T14:16:33.082Z,4.78
2023-02-04T14:19:00.517Z,7.88
2023-02-04T14:21:27.226Z,6.82
2023-02-04T14:23:53.782Z,7.45
2023-02-04T14:26:20.632Z,5.25
2023-02-04T14:28:47.152Z,4.75
2023-02-04T14:31:13.948Z,3.97
2023-02-04T14:33:40.400Z,3.58
2023-02-04T14:36:07.220Z,6.22
2023-02-04T14:38:34.328Z,4.10
2023-02-04T14:41:00.915Z,4.35
2023-02-04T14:43:27.502Z,5.60
2023-02-04T14:45:54.026Z,5.30
2023-02-04T14:48:20.674Z,6.47
2023-02-04T14:50:47.235Z,4.90
2023-02-04T14:53:13.766Z,5.28
2023-02-04T14:55:40.259Z,5.90
2023-02-04T14:58:07.646Z,3.97
2023-02-04T15:00:34.671Z,6.60
2023-02-04T15:03:01.355Z,5.30
2023-02-04T15:05:27.937Z,4.35
2023-02-04T15:07:54.511Z,8.43
2023-02-04T15:10:22.688Z,4.55
2023-02-04T15:12:49.391Z,4.85
2023-02-04T15:15:16.093Z,5.22
2023-02-04T15:17:42.664Z,7.75
2023-02-04T15:20:09.745Z,6.15
2023-02-04T15:22:36.249Z,5.63
2023-02-04T15:25:02.940Z,4.22
2023-02-04T15:27:29.698Z,2.80
2023-02-04T15:29:56.213Z,4.90
2023-02-04T15:32:22.728Z,6.15
2023-02-04T15:34:49.271Z,3.67
2023-02-04T15:37:16.106Z,7.20
2023-02-04T15:39:43.757Z,6.30
2023-02-04T15:42:10.971Z,5.10
2023-02-04T15:44:37.946Z,8.25
2023-02-04T15:47:06.381Z,7.63
2023-02-04T15:49:33.927Z,5.20
2023-02-04T15:52:00.660Z,6.40
2023-02-04T15:54:27.134Z,5.28
2023-02-04T15:56:53.711Z,4.93
2023-02-04T15:59:20.281Z,8.23
2023-02-04T16:01:46.844Z,3.50
2023-02-04T16:04:13.414Z,6.30
2023-02-04T16:06:44.972Z,6.00
2023-02-04T16:09:16.833Z,4.60
2023-02-04T16:11:43.361Z,6.78
2023-02-04T16:14:10.492Z,7.68
2023-02-04T16:16:37.060Z,7.50
2023-02-04T16:19:03.599Z,8.57
2023-02-04T16:21:30.086Z,5.55
2023-02-04T16:23:56.686Z,6.90
2023-02-04T16:26:23.201Z,7.28
2023-02-04T16:28:49.797Z,5.20
2023-02-04T16:31:16.443Z,10.80
2023-02-04T16:33:43.073Z,5.63
2023-02-04T16:36:12.886Z,6.38
2023-02-04T16:38:40.703Z,6.70
2023-02-04T16:41:07.622Z,5.72
2023-02-04T16:43:34.314Z,6.15
2023-02-04T16:46:00.869Z,4.00
2023-02-04T16:48:28.734Z,3.58
2023-02-04T16:50:55.574Z,6.15
2023-02-04T16:53:22.278Z,6.40
2023-02-04T16:55:49.199Z,5.22
2023-02-04T16:58:16.442Z,5.15
2023-02-04T17:00:44.248Z,7.32
2023-02-04T17:03:14.977Z,5.72
2023-02-04T17:05:42.351Z,6.63
2023-02-04T17:08:09.067Z,4.63
2023-02-04T17:10:54.463Z,5.97
2023-02-04T17:13:21.010Z,9.40
2023-02-04T17:15:47.655Z,6.85
2023-02-04T17:18:14.252Z,15.48
2023-02-04T17:20:40.840Z,6.70
2023-02-04T17:23:07.307Z,5.28
2023-02-04T17:25:34.147Z,6.30
2023-02-04T17:28:00.838Z,10.10
2023-02-04T17:30:27.723Z,9.65
2023-02-04T17:32:54.238Z,6.00
2023-02-04T17:35:20.736Z,6.50
2023-02-04T17:37:47.243Z,3.80
2023-02-04T17:40:13.875Z,6.78
2023-02-04T17:42:41.218Z,5.90
2023-02-04T17:45:10.494Z,6.45
2023-02-04T17:47:40.757Z,12.40
2023-02-04T17:50:10.039Z,9.27
2023-02-04T17:52:38.318Z,7.47
2023-02-04T17:55:22.387Z,9.02
2023-02-04T17:57:49.429Z,6.00
2023-02-04T18:00:21.171Z,8.63
2023-02-04T18:02:50.261Z,8.77
2023-02-04T18:05:20.405Z,5.47
2023-02-04T18:07:53.607Z,6.45
2023-02-04T18:10:41.425Z,5.55
2023-02-04T18:13:19.933Z,5.85
2023-02-04T18:15:50.911Z,6.97
2023-02-04T18:18:26.544Z,10.90
2023-02-04T18:21:21.552Z,7.32
2023-02-04T18:24:09.782Z,8.65
2023-02-04T18:26:45.911Z,9.70
2023-02-04T18:29:31.253Z,10.45
2023-02-04T18:32:01.959Z,11.70
2023-02-04T18:34:40.303Z,9.95
2023-02-04T18:37:34.010Z,10.93
2023-02-04T18:40:19.964Z,9.82
2023-02-04T18:42:47.398Z,10.65
2023-02-04T18:45:27.423Z,13.68
2023-02-04T18:47:59.591Z,12.82
2023-02-04T18:50:29.569Z,10.10
2023-02-04T18:53:01.334Z,10.90
2023-02-04T18:55:30.801Z,13.52
2023-02-04T18:58:18.945Z,16.63
2023-02-04T19:00:51.960Z,15.27
2023-02-04T19:03:23.856Z,9.55
2023-02-04T19:05:51.310Z,16.83
2023-02-04T19:08:23.580Z,11.55
2023-02-04T19:10:51.793Z,16.73
2023-02-04T19:13:25.687Z,13.00
2023-02-04T19:16:17.610Z,18.73
2023-02-04T19:18:45.060Z,17.05
2023-02-04T19:21:22.612Z,16.75
2023-02-04T19:23:51.015Z,16.90
2023-02-04T19:26:42.543Z,18.85
2023-02-04T19:29:30.204Z,19.15
2023-02-04T19:32:07.558Z,13.88
2023-02-04T19:34:38.200Z,16.02
2023-02-04T19:37:40.824Z,12.65
2023-02-04T19:40:34.570Z,15.95
2023-02-04T19:43:21.185Z,18.65
2023-02-04T19:45:50.966Z,14.05
2023-02-04T19:48:34.218Z,14.77
2023-02-04T19:51:07.493Z,23.25
2023-02-04T19:53:34.027Z,14.38
2023-02-04T19:56:00.518Z,17.20
2023-02-04T19:58:42.274Z,15.98
2023-02-04T20:01:18.022Z,17.02
2023-02-04T20:03:49.336Z,15.48
2023-02-04T20:06:35.501Z,11.68
2023-02-04T20:09:15.669Z,10.80
2023-02-04T20:12:11.553Z,13.35
2023-02-04T20:14:55.960Z,15.38
2023-02-04T20:17:40.164Z,17.67
2023-02-04T20:20:26.716Z,11.43
2023-02-04T20:22:57.791Z,11.68
2023-02-04T20:25:50.726Z,13.70
2023-02-04T20:28:34.611Z,20.48
2023-02-04T20:31:02.313Z,15.82
2023-02-04T20:33:48.959Z,12.68
2023-02-04T20:36:15.365Z,14.63
2023-02-04T20:38:41.865Z,12.40
2023-02-04T20:41:20.780Z,13.30
2023-02-04T20:43:51.112Z,18.75
2023-02-04T20:46:26.698Z,15.73
2023-02-04T20:48:53.203Z,14.75
2023-02-04T20:51:23.380Z,17.73
2023-02-04T20:53:59.121Z,12.02
2023-02-04T20:56:32.366Z,11.85
2023-02-04T20:59:26.210Z,13.70
2023-02-04T21:01:53.544Z,12.38
2023-02-04T21:04:32.371Z,10.63
2023-02-04T21:07:02.418Z,13.93
2023-02-04T21:09:31.602Z,9.55
2023-02-04T21:11:59.189Z,13.57
2023-02-04T21:14:27.727Z,15.27
2023-02-04T21:16:54.870Z,14.70
2023-02-04T21:19:23.427Z,13.13
2023-02-04T21:21:50.392Z,14.57
2023-02-04T21:24:17.647Z,9.13
2023-02-04T21:26:44.558Z,12.48
2023-02-04T21:29:11.417Z,10.57
2023-02-04T21:31:38.333Z,12.25
2023-02-04T21:34:05.670Z,14.45
2023-02-04T21:36:32.181Z,7.75
2023-02-04T21:38:59.261Z,10.63
2023-02-04T21:41:26.056Z,17.23
2023-02-04T21:43:52.758Z,9.68
2023-02-04T21:46:20.115Z,9.75
2023-02-04T21:48:46.648Z,7.93
2023-02-04T21:51:14.336Z,11.13
2023-02-04T21:53:41.437Z,10.02
2023-02-04T21:56:09.087Z,9.65
2023-02-04T21:58:36.202Z,12.25
2023-02-04T22:01:02.746Z,8.88
2023-02-04T22:03:29.825Z,10.25
2023-02-04T22:05:56.451Z,10.25
2023-02-04T22:08:23.122Z,10.07
2023-02-04T22:10:49.697Z,8.90
2023-02-04T22:13:16.184Z,9.32
2023-02-04T22:15:42.729Z,11.43
2023-02-04T22:18:09.398Z,12.80
2023-02-04T22:20:37.094Z,11.20
2023-02-04T22:23:04.484Z,11.95
2023-02-04T22:25:31.146Z,10.18
2023-02-04T22:27:57.703Z,9.48
2023-02-04T22:30:24.233Z,12.63
2023-02-04T22:32:50.820Z,11.10
2023-02-04T22:35:17.751Z,15.35
2023-02-04T22:37:44.303Z,12.05
2023-02-04T22:40:13.066Z,19.52
2023-02-04T22:42:39.780Z,16.30
2023-02-04T22:45:08.007Z,18.23
2023-02-04T22:47:34.501Z,16.90
2023-02-04T22:50:01.234Z,16.02
2023-02-04T22:52:27.880Z,12.35
2023-02-04T22:54:54.401Z,15.20
2023-02-04T22:57:20.896Z,17.15
2023-02-04T22:59:47.401Z,15.30
2023-02-04T23:02:14.346Z,17.30
2023-02-04T23:04:43.920Z,18.45
2023-02-04T23:07:11.293Z,18.42
2023-02-04T23:09:37.863Z,15.52
2023-02-04T23:12:13.934Z,17.33
2023-02-04T23:14:45.667Z,15.15
2023-02-04T23:17:12.976Z,15.15
2023-02-04T23:19:39.722Z,14.50
2023-02-04T23:22:07.875Z,16.42
2023-02-04T23:24:35.136Z,14.88
2023-02-04T23:27:03.044Z,10.40
2023-02-04T23:29:32.282Z,14.00
2023-02-04T23:31:59.760Z,12.57
2023-02-04T23:34:26.415Z,12.65
2023-02-04T23:36:52.947Z,15.00
2023-02-04T23:39:20.742Z,12.27
2023-02-04T23:41:48.361Z,12.00
2023-02-04T23:44:15.324Z,17.92
2023-02-04T23:46:41.998Z,13.75
2023-02-04T23:49:08.693Z,13.35
2023-02-04T23:51:36.001Z,13.00
2023-02-04T23:54:02.786Z,13.60
2023-02-04T23:56:29.764Z,15.13
2023-02-04T23:58:56.612Z,10.60
